Time;durP1;ratioP1;P1;durP2;ratioP2;P2;SDS_P1;SDS_P2;PMS_P1;PMS_P2;Temp;Humidity;BMP_temperature;BMP_pressure;BME280_temperature;BME280_humidity;BME280_pressure;Samples;Min_cycle;Max_cycle;Signal;HPM_P1;HPM_P2
2023/10/12 00:00:27;;;;;;;13.57;5.30;;;;;;;23.38;44.33;100460.06;687299;28;1918;-86
2023/10/12 00:00:48;;;;;;;12.85;5.10;;;;;;;23.37;44.55;100463.66;690349;28;1417;-86
2023/10/12 00:01:09;;;;;;;11.23;5.20;;;;;;;23.37;44.31;100459.19;685713;28;1323;-86
2023/10/12 00:01:31;;;;;;;10.38;5.32;;;;;;;23.42;43.99;100456.38;691740;28;1343;-87
2023/10/12 00:01:57;;;;;;;10.45;5.60;;;;;;;23.35;44.46;100449.50;687844;28;944;-87
2023/10/12 00:02:27;;;;;;;8.35;4.85;;;;;;;23.45;44.29;100463.38;690267;28;1364;-86
2023/10/12 00:02:57;;;;;;;12.52;5.22;;;;;;;23.41;44.21;100457.28;690328;28;902;-85
2023/10/12 00:03:18;;;;;;;17.48;5.78;;;;;;;23.43;44.25;100452.81;690067;28;1310;-86
2023/10/12 00:03:39;;;;;;;16.73;5.77;;;;;;;23.42;44.31;100453.69;690192;28;1287;-87
2023/10/12 00:04:07;;;;;;;16.73;5.68;;;;;;;23.41;44.27;100455.50;690515;28;841;-86
2023/10/12 00:07:16;;;;;;;9.70;4.75;;;;;;;23.38;44.21;100450.28;694332;28;1625;-85
2023/10/12 00:07:38;;;;;;;7.68;4.72;;;;;;;23.38;44.57;100450.28;693237;28;1286;-86
2023/10/12 00:08:01;;;;;;;12.32;4.80;;;;;;;23.37;44.59;100453.00;691071;28;823;-86
2023/10/12 00:08:30;;;;;;;13.57;5.03;;;;;;;23.40;44.36;100443.13;695181;28;1281;-89
2023/10/12 00:08:51;;;;;;;9.43;5.03;;;;;;;23.42;44.40;100440.41;695244;28;1255;-86
2023/10/12 00:09:18;;;;;;;10.05;5.28;;;;;;;23.40;44.15;100444.91;688129;28;1257;-86
2023/10/12 00:09:38;;;;;;;12.82;5.28;;;;;;;23.38;44.38;100444.09;691699;28;1620;-86
2023/10/12 00:10:19;;;;;;;12.67;5.17;;;;;;;23.39;44.38;100443.16;693763;28;1208;-87
2023/10/12 00:10:44;;;;;;;8.90;5.00;;;;;;;23.42;44.20;100437.72;696075;28;1384;-85
2023/10/12 00:11:06;;;;;;;10.35;5.03;;;;;;;23.39;44.15;100445.81;693567;28;1445;-86
2023/10/12 00:11:39;;;;;;;9.50;5.00;;;;;;;23.37;44.13;100445.00;686475;28;1227;-84
2023/10/12 00:12:07;;;;;;;12.10;5.00;;;;;;;23.41;44.26;100443.97;685543;28;1343;-85
2023/10/12 00:12:34;;;;;;;13.00;5.00;;;;;;;23.37;44.37;100445.00;686474;28;1290;-86
2023/10/12 00:12:59;;;;;;;10.65;5.07;;;;;;;23.42;44.26;100451.03;688052;28;1323;-85
2023/10/12 00:13:20;;;;;;;11.55;5.25;;;;;;;23.45;43.99;100450.09;690517;28;1215;-86
2023/10/12 00:13:43;;;;;;;11.10;5.40;;;;;;;23.40;44.21;100442.25;687464;28;1229;-84
2023/10/12 00:14:05;;;;;;;9.23;5.00;;;;;;;23.39;44.45;100440.50;690650;28;1287;-86
2023/10/12 00:14:32;;;;;;;7.90;5.10;;;;;;;23.38;44.11;100444.09;693411;28;1228;-84
2023/10/12 00:14:54;;;;;;;8.40;5.00;;;;;;;23.41;44.49;100443.97;696028;28;887;-86
2023/10/12 00:15:45;;;;;;;7.55;4.68;;;;;;;23.35;44.23;100438.88;696178;28;1293;-87
2023/10/12 00:16:06;;;;;;;8.13;4.50;;;;;;;23.38;44.34;100444.97;696248;28;1144;-86
2023/10/12 00:16:27;;;;;;;9.00;4.70;;;;;;;23.38;44.53;100454.75;696355;28;1034;-87
2023/10/12 00:16:52;;;;;;;9.93;4.53;;;;;;;23.37;44.29;100447.66;691536;28;1069;-87
2023/10/12 00:17:12;;;;;;;12.25;5.20;;;;;;;23.33;44.33;100443.34;692902;28;1349;-86
2023/10/12 00:18:08;;;;;;;14.40;5.40;;;;;;;23.37;44.31;100453.84;693770;28;1105;-86
2023/10/12 00:18:31;;;;;;;9.95;4.47;;;;;;;23.39;44.34;100451.16;693221;28;1367;-84
2023/10/12 00:18:51;;;;;;;9.75;4.88;;;;;;;23.33;44.08;100446.88;695778;28;1264;-85
2023/10/12 00:19:12;;;;;;;8.67;4.70;;;;;;;23.40;44.20;100444.91;693350;28;1393;-86
2023/10/12 00:19:33;;;;;;;7.78;4.80;;;;;;;23.44;44.33;100459.00;695212;28;1322;-87
2023/10/12 00:19:53;;;;;;;7.25;4.65;;;;;;;23.35;44.21;100449.50;688371;28;859;-85
2023/10/12 00:20:21;;;;;;;10.20;5.00;;;;;;;23.37;44.20;100448.53;687863;28;1985;-87
2023/10/12 00:20:44;;;;;;;10.93;5.38;;;;;;;23.36;44.25;100456.59;690812;28;884;-86
2023/10/12 00:21:14;;;;;;;11.65;5.53;;;;;;;23.36;44.30;100446.78;693525;28;1188;-85
2023/10/12 00:21:35;;;;;;;9.55;5.28;;;;;;;23.37;44.17;100442.34;693834;28;986;-86
2023/10/12 00:21:59;;;;;;;9.80;5.03;;;;;;;23.35;44.24;100449.50;693653;28;1140;-86
2023/10/12 00:22:19;;;;;;;11.73;5.20;;;;;;;23.34;44.44;100442.41;690471;28;1307;-85
2023/10/12 00:22:40;;;;;;;11.33;5.20;;;;;;;23.36;44.37;100435.28;687853;28;1192;-84
2023/10/12 00:23:09;;;;;;;11.48;5.35;;;;;;;23.38;44.31;100444.97;688304;28;735;-86
2023/10/12 00:23:33;;;;;;;11.07;4.80;;;;;;;23.35;44.31;100436.22;688007;28;1008;-85
2023/10/12 00:23:56;;;;;;;14.75;5.13;;;;;;;23.39;44.16;100443.16;693623;28;1320;-84
2023/10/12 00:24:18;;;;;;;15.18;5.53;;;;;;;23.36;44.29;100438.81;690611;28;1288;-86
2023/10/12 00:24:38;;;;;;;15.05;5.40;;;;;;;23.39;44.24;100445.81;687399;28;1114;-86
2023/10/12 00:24:59;;;;;;;9.90;5.00;;;;;;;23.34;44.18;100437.97;688305;28;850;-87
2023/10/12 00:25:20;;;;;;;8.50;4.53;;;;;;;23.35;44.26;100438.88;690686;28;1270;-85
2023/10/12 00:25:54;;;;;;;8.13;5.00;;;;;;;23.36;44.30;100443.28;685356;28;1509;-86
2023/10/12 00:26:15;;;;;;;10.75;5.70;;;;;;;23.36;44.36;100424.63;685422;28;988;-86
2023/10/12 00:26:38;;;;;;;13.20;5.80;;;;;;;23.31;44.25;100431.88;693203;28;1632;-86
2023/10/12 00:26:59;;;;;;;14.18;5.75;;;;;;;23.32;44.18;100434.50;690966;28;1292;-84
2023/10/12 00:27:21;;;;;;;11.40;5.38;;;;;;;23.33;44.27;100422.94;690718;28;1324;-86
2023/10/12 00:27:43;;;;;;;10.40;5.28;;;;;;;23.40;44.47;100434.25;690830;28;971;-85
2023/10/12 00:28:06;;;;;;;11.35;5.10;;;;;;;23.29;44.33;100410.63;690590;28;1273;-85
2023/10/12 00:28:38;;;;;;;11.40;5.10;;;;;;;23.34;44.38;100426.44;689718;28;1285;-85
2023/10/12 00:28:59;;;;;;;9.57;5.20;;;;;;;23.34;44.33;100427.34;690904;28;1113;-85
2023/10/12 00:29:21;;;;;;;8.90;5.43;;;;;;;23.37;44.39;100434.34;690700;28;1145;-86
2023/10/12 00:29:44;;;;;;;8.35;5.35;;;;;;;23.40;44.32;100436.91;688011;28;1248;-85
2023/10/12 00:30:06;;;;;;;11.30;5.68;;;;;;;23.40;44.15;100443.13;693273;28;1172;-84
2023/10/12 00:30:31;;;;;;;12.95;5.85;;;;;;;23.40;44.30;100424.50;693068;28;1377;-88
2023/10/12 00:30:54;;;;;;;10.98;5.60;;;;;;;23.39;44.24;100425.41;696243;28;1392;-85
2023/10/12 00:31:19;;;;;;;10.15;5.32;;;;;;;23.35;44.24;100422.91;693355;28;1280;-85
2023/10/12 00:31:42;;;;;;;8.63;5.15;;;;;;;23.31;44.33;100423.91;693217;28;1253;-85
2023/10/12 00:32:06;;;;;;;8.23;4.85;;;;;;;23.36;44.45;100424.63;693642;28;1031;-86
2023/10/12 00:32:27;;;;;;;9.70;4.68;;;;;;;23.32;44.38;100426.53;694497;28;1007;-85
2023/10/12 00:32:51;;;;;;;10.97;4.80;;;;;;;23.34;44.64;100424.66;695815;28;1318;-84
2023/10/12 00:33:13;;;;;;;8.82;5.10;;;;;;;23.38;44.31;100425.44;690374;28;1259;-86
2023/10/12 00:33:34;;;;;;;9.63;5.30;;;;;;;23.33;44.55;100425.59;691295;28;1296;-85
2023/10/12 00:35:49;;;;;;;9.52;4.90;;;;;;;23.33;44.41;100411.41;689920;28;1288;-88
2023/10/12 00:36:21;;;;;;;14.00;5.53;;;;;;;23.34;44.36;100414.03;693618;28;1003;-87
2023/10/12 00:36:45;;;;;;;19.00;6.00;;;;;;;23.41;44.21;100412.03;698189;28;927;-85
2023/10/12 00:37:07;;;;;;;15.18;5.50;;;;;;;23.43;44.27;100420.84;695679;28;1226;-87
2023/10/12 00:37:32;;;;;;;11.68;4.90;;;;;;;23.42;44.25;100421.75;697742;28;1081;-87
2023/10/12 00:37:54;;;;;;;12.02;5.03;;;;;;;23.44;44.21;100414.63;696362;28;915;-86
2023/10/12 00:38:19;;;;;;;11.40;4.82;;;;;;;23.45;44.46;100418.13;685179;28;1285;-85
2023/10/12 00:38:40;;;;;;;10.35;4.82;;;;;;;23.38;44.38;100417.47;687884;28;1308;-87
2023/10/12 00:39:00;;;;;;;8.82;4.53;;;;;;;23.31;44.42;100411.47;693201;28;1304;-87
2023/10/12 00:39:27;;;;;;;12.07;4.82;;;;;;;23.36;44.54;100421.97;690263;28;1359;-85
2023/10/12 00:39:58;;;;;;;13.05;4.72;;;;;;;23.34;44.38;100415.81;690601;28;1422;-86
2023/10/12 00:40:57;;;;;;;10.57;4.95;;;;;;;23.38;44.17;100406.81;692741;28;1346;-86
2023/10/12 00:41:19;;;;;;;11.07;5.30;;;;;;;23.35;44.17;100415.75;690779;28;1058;-85
2023/10/12 00:41:46;;;;;;;10.90;5.60;;;;;;;23.38;43.97;100417.47;687733;28;1197;-85
2023/10/12 00:42:07;;;;;;;9.15;5.45;;;;;;;23.44;43.90;100413.72;690219;28;1124;-86
2023/10/12 00:42:34;;;;;;;13.57;6.03;;;;;;;23.45;43.95;100424.34;687008;28;1262;-85
2023/10/12 00:42:56;;;;;;;14.68;5.57;;;;;;;23.42;43.97;100432.41;693761;28;901;-86
2023/10/12 00:43:17;;;;;;;13.32;5.07;;;;;;;23.44;43.83;100427.03;690597;28;973;-86
2023/10/12 00:44:06;;;;;;;9.48;4.50;;;;;;;23.38;43.85;100413.03;690165;28;1221;-84
2023/10/12 00:44:29;;;;;;;10.38;4.82;;;;;;;23.39;44.10;100416.53;690720;28;1071;-86
2023/10/12 00:44:53;;;;;;;11.45;5.38;;;;;;;23.35;44.01;100425.56;693305;28;807;-85
2023/10/12 00:45:19;;;;;;;10.27;5.50;;;;;;;23.31;44.12;100419.47;690741;28;1079;-84
2023/10/12 00:45:40;;;;;;;8.75;5.22;;;;;;;23.32;44.15;100428.28;687927;28;982;-85
2023/10/12 00:46:58;;;;;;;8.40;4.68;;;;;;;23.25;44.36;100431.13;693068;28;1203;-85
2023/10/12 00:47:29;;;;;;;8.23;4.72;;;;;;;23.38;43.94;100438.75;696090;28;1071;-85
2023/10/12 00:47:52;;;;;;;7.93;4.63;;;;;;;23.32;44.19;100438.94;692618;28;1314;-86
2023/10/12 00:48:16;;;;;;;9.05;4.68;;;;;;;23.32;44.28;100434.50;687884;28;1243;-86
2023/10/12 00:48:47;;;;;;;8.50;4.50;;;;;;;23.34;44.27;100442.41;695604;28;1091;-85
2023/10/12 00:49:22;;;;;;;8.70;4.82;;;;;;;23.34;44.26;100445.09;693326;28;1246;-87
2023/10/12 00:49:48;;;;;;;12.48;4.97;;;;;;;23.25;44.24;100436.47;693491;28;1132;-87
2023/10/12 00:50:11;;;;;;;10.95;5.00;;;;;;;23.31;44.11;100442.53;693380;28;1055;-88
2023/10/12 00:50:34;;;;;;;7.25;4.65;;;;;;;23.30;44.16;100440.78;691150;28;1054;-87
2023/10/12 00:50:57;;;;;;;11.13;4.47;;;;;;;23.30;44.27;100448.78;688132;28;1306;-85
2023/10/12 00:51:18;;;;;;;12.07;4.50;;;;;;;23.28;44.42;100447.03;693438;28;1325;-86
2023/10/12 00:51:48;;;;;;;10.27;4.57;;;;;;;23.29;44.23;100439.91;695678;28;1204;-86
2023/10/12 00:52:21;;;;;;;13.70;4.97;;;;;;;23.28;44.25;100441.72;693435;28;1113;-85
2023/10/12 00:52:55;;;;;;;12.68;5.35;;;;;;;23.36;44.04;100445.94;690748;28;904;-86
2023/10/12 00:53:31;;;;;;;8.65;4.85;;;;;;;23.28;44.35;100444.38;692332;28;1085;-86
2023/10/12 00:53:58;;;;;;;9.50;5.00;;;;;;;23.28;44.22;100439.06;693098;28;1246;-86
2023/10/12 00:55:13;;;;;;;7.63;4.93;;;;;;;23.26;44.17;100438.22;682700;28;1259;-86
2023/10/12 00:55:37;;;;;;;10.88;5.38;;;;;;;23.23;44.19;100430.31;692153;28;1209;-85
2023/10/12 00:56:01;;;;;;;14.18;5.07;;;;;;;23.27;44.34;100432.00;690408;28;1220;-86
2023/10/12 00:56:25;;;;;;;13.05;4.50;;;;;;;23.25;44.25;100439.13;690697;28;1172;-86
2023/10/12 00:56:45;;;;;;;12.23;4.43;;;;;;;23.19;44.22;100449.09;690588;28;1374;-87
2023/10/12 00:57:10;;;;;;;12.88;4.72;;;;;;;23.16;44.42;100428.75;685112;28;1316;-87
2023/10/12 00:57:31;;;;;;;10.63;4.90;;;;;;;23.18;44.27;100442.88;690532;28;1210;-85
2023/10/12 00:57:52;;;;;;;10.40;4.72;;;;;;;23.20;44.25;100441.06;693003;28;1312;-87
2023/10/12 00:58:17;;;;;;;8.15;4.35;;;;;;;23.15;44.53;100437.66;687922;28;1115;-85
2023/10/12 00:58:38;;;;;;;8.45;4.38;;;;;;;23.21;44.41;100440.16;690493;28;1306;-86
2023/10/12 00:59:00;;;;;;;13.80;4.75;;;;;;;23.15;44.31;100437.66;693411;28;1410;-86
2023/10/12 00:59:22;;;;;;;18.67;5.28;;;;;;;23.20;44.29;100441.06;693239;28;1303;-85
2023/10/12 00:59:43;;;;;;;18.48;5.50;;;;;;;23.14;44.61;100435.94;687998;28;1425;-86
2023/10/12 01:00:15;;;;;;;12.88;5.50;;;;;;;23.18;44.54;100445.56;693463;28;1147;-86
2023/10/12 01:00:51;;;;;;;8.60;4.82;;;;;;;23.15;44.56;100448.31;695678;28;1339;-87
2023/10/12 01:01:11;;;;;;;11.07;4.75;;;;;;;23.21;44.55;100450.81;696000;28;1109;-85
2023/10/12 01:01:32;;;;;;;12.07;4.87;;;;;;;23.11;44.70;100441.34;696879;28;1184;-84
2023/10/12 01:01:53;;;;;;;10.70;4.70;;;;;;;23.17;44.74;100450.94;690908;28;735;-85
2023/10/12 01:02:15;;;;;;;18.55;4.80;;;;;;;23.10;44.83;100444.91;690305;28;1333;-87
2023/10/12 01:02:39;;;;;;;24.30;5.18;;;;;;;23.12;44.88;100449.28;692830;28;1270;-85
2023/10/12 01:03:39;;;;;;;9.15;4.93;;;;;;;23.07;45.28;100435.25;692713;28;1158;-87
2023/10/12 01:04:01;;;;;;;12.23;5.45;;;;;;;23.12;45.54;100449.28;693518;28;1152;-86
2023/10/12 01:04:22;;;;;;;12.82;5.18;;;;;;;23.01;45.34;100444.25;687843;28;1316;-85
2023/10/12 01:04:52;;;;;;;10.77;4.68;;;;;;;23.01;45.60;100449.59;692720;28;1262;-85
2023/10/12 01:05:17;;;;;;;9.52;4.70;;;;;;;22.99;45.67;100451.44;696015;28;996;-86
2023/10/12 01:05:40;;;;;;;10.07;4.90;;;;;;;22.89;46.16;100441.94;693277;28;1155;-86
2023/10/12 01:06:14;;;;;;;9.38;4.50;;;;;;;22.91;46.17;100453.41;693602;28;831;-86
2023/10/12 01:06:35;;;;;;;9.57;4.63;;;;;;;22.88;46.29;100446.38;692622;28;1259;-86
2023/10/12 01:07:00;;;;;;;9.07;5.00;;;;;;;22.87;46.30;100444.63;693498;28;1268;-86
2023/10/12 01:07:25;;;;;;;10.95;5.50;;;;;;;22.92;46.18;100456.97;690491;28;1240;-86
2023/10/12 01:07:46;;;;;;;11.77;5.10;;;;;;;22.87;46.36;100449.09;690592;28;1292;-88
2023/10/12 01:08:07;;;;;;;9.23;4.88;;;;;;;22.84;46.35;100446.50;690640;28;996;-87
2023/10/12 01:08:30;;;;;;;10.80;5.20;;;;;;;22.92;46.28;100455.16;690741;28;1066;-86
2023/10/12 01:08:51;;;;;;;12.40;5.10;;;;;;;22.86;46.30;100452.66;693699;28;1124;-86
2023/10/12 01:09:20;;;;;;;14.93;5.10;;;;;;;22.86;46.34;100452.66;690443;28;1112;-87
2023/10/12 01:09:45;;;;;;;12.15;4.75;;;;;;;22.87;46.26;100454.44;687571;28;1429;-85
2023/10/12 01:10:08;;;;;;;8.80;4.43;;;;;;;22.92;46.23;100446.31;690293;28;1217;-87
2023/10/12 01:10:32;;;;;;;11.23;4.80;;;;;;;22.85;46.25;100456.25;693115;28;889;-85
2023/10/12 01:10:57;;;;;;;17.77;5.43;;;;;;;22.87;46.37;100457.09;690255;28;1256;-86
2023/10/12 01:11:36;;;;;;;18.75;5.70;;;;;;;22.85;46.38;100453.56;687993;28;1130;-85
2023/10/12 01:12:00;;;;;;;11.20;6.00;;;;;;;22.88;46.38;100456.16;688201;28;807;-88
2023/10/12 01:12:29;;;;;;;9.70;5.60;;;;;;;22.84;46.57;100455.38;692363;28;1366;-85
2023/10/12 01:12:50;;;;;;;10.88;5.35;;;;;;;22.90;46.28;100467.63;696183;28;1327;-85
2023/10/12 01:13:11;;;;;;;10.90;5.40;;;;;;;22.92;46.05;100454.28;690425;28;1207;-86
2023/10/12 01:13:35;;;;;;;11.75;5.38;;;;;;;22.93;46.25;100462.22;693056;28;1172;-86
2023/10/12 01:14:26;;;;;;;11.57;5.18;;;;;;;22.89;45.89;100463.22;690600;28;1089;-86
2023/10/12 01:14:54;;;;;;;9.68;5.55;;;;;;;22.89;45.98;100460.56;687526;28;1265;-84
2023/10/12 01:15:16;;;;;;;13.45;5.80;;;;;;;22.94;46.09;100461.28;693327;28;1268;-85
2023/10/12 01:15:40;;;;;;;13.20;5.80;;;;;;;22.90;46.16;100464.09;695385;28;1050;-86
2023/10/12 01:17:29;;;;;;;9.45;5.65;;;;;;;22.87;46.06;100463.25;685524;28;1288;-87
2023/10/12 01:17:51;;;;;;;10.18;5.70;;;;;;;22.83;45.93;100472.25;699135;28;804;-85
2023/10/12 01:18:12;;;;;;;11.38;5.65;;;;;;;22.86;45.96;100473.94;698601;28;1321;-86
2023/10/12 01:18:34;;;;;;;13.18;5.90;;;;;;;22.92;45.92;100468.44;697079;28;1091;-86
2023/10/12 01:19:05;;;;;;;18.25;6.00;;;;;;;22.85;45.93;100467.75;688513;28;1628;-86
2023/10/12 01:19:31;;;;;;;16.10;5.85;;;;;;;22.90;45.69;100469.41;692986;28;1236;-87
2023/10/12 01:19:52;;;;;;;11.80;5.40;;;;;;;22.88;45.86;100473.00;690827;28;1364;-89
2023/10/12 01:20:26;;;;;;;11.13;4.95;;;;;;;22.92;45.75;100465.78;687832;28;1918;-88
2023/10/12 01:20:49;;;;;;;9.80;4.95;;;;;;;22.87;45.84;100476.56;692904;28;1380;-85
2023/10/12 01:21:11;;;;;;;11.05;5.22;;;;;;;22.87;45.81;100465.91;690632;28;1232;-86
2023/10/12 01:21:36;;;;;;;10.00;5.05;;;;;;;22.88;45.90;100466.81;687774;28;1298;-85
2023/10/12 01:22:39;;;;;;;10.98;5.30;;;;;;;22.81;46.11;100471.41;679578;28;1289;-86
2023/10/12 01:22:43;;;;;;;10.38;5.35;;;;;;;22.86;45.85;100469.50;693470;28;938;-86
2023/10/12 01:23:00;;;;;;;9.10;4.47;;;;;;;22.79;46.06;100461.75;693641;28;1338;-87
2023/10/12 01:23:21;;;;;;;12.02;4.70;;;;;;;22.82;45.74;100467.84;687645;28;1228;-85
2023/10/12 01:23:47;;;;;;;10.20;4.70;;;;;;;22.82;46.09;100467.84;695760;28;1180;-89
2023/10/12 01:24:11;;;;;;;23.35;5.72;;;;;;;22.83;45.92;100460.75;690457;28;1262;-87
2023/10/12 01:24:33;;;;;;;21.27;5.70;;;;;;;22.81;45.88;100465.25;691630;28;1566;-87
2023/10/12 01:25:33;;;;;;;8.30;5.38;;;;;;;22.82;45.96;100457.19;687264;28;1262;-86
2023/10/12 01:26:03;;;;;;;10.60;4.82;;;;;;;22.83;45.84;100460.75;690257;28;1582;-86
2023/10/12 01:26:25;;;;;;;11.05;4.82;;;;;;;22.81;45.93;100450.13;693267;28;1371;-85
2023/10/12 01:26:49;;;;;;;19.58;4.97;;;;;;;22.79;46.02;100456.44;693417;28;925;-86
2023/10/12 01:27:13;;;;;;;22.27;5.47;;;;;;;22.76;45.89;100445.88;693408;28;1015;-87
2023/10/12 01:27:41;;;;;;;19.40;5.65;;;;;;;22.74;46.00;100452.09;690520;28;1032;-85
2023/10/12 01:28:05;;;;;;;14.52;5.30;;;;;;;22.77;46.10;100458.25;690225;28;1369;-86
2023/10/12 01:28:26;;;;;;;12.45;5.00;;;;;;;22.70;46.32;100453.09;694354;28;1166;-87
2023/10/12 01:28:49;;;;;;;12.02;5.25;;;;;;;22.78;46.18;100454.66;687937;28;1350;-86
2023/10/12 01:29:19;;;;;;;11.30;5.20;;;;;;;22.78;45.91;100454.66;687717;28;1473;-86
2023/10/12 01:29:40;;;;;;;14.90;5.35;;;;;;;22.70;46.07;100447.78;690092;28;1181;-87
2023/10/12 01:30:22;;;;;;;14.88;5.28;;;;;;;22.81;45.79;100463.44;690688;28;1233;-88
2023/10/12 01:30:44;;;;;;;8.93;4.80;;;;;;;22.77;45.96;100453.81;690585;28;1102;-89
2023/10/12 01:31:05;;;;;;;13.13;5.57;;;;;;;22.77;46.01;100452.94;690596;28;1370;-87
2023/10/12 01:31:28;;;;;;;14.70;5.80;;;;;;;22.79;45.84;100461.75;693275;28;1098;-86
2023/10/12 01:32:37;;;;;;;14.50;5.90;;;;;;;22.79;45.71;100457.28;696114;28;1322;-87
2023/10/12 01:32:37;;;;;;;8.52;5.22;;;;;;;22.78;45.72;100459.97;687665;28;1264;-87
2023/10/12 01:32:58;;;;;;;8.00;4.88;;;;;;;22.80;45.68;100463.50;696228;28;1282;-87
2023/10/12 01:33:19;;;;;;;7.80;4.97;;;;;;;22.84;45.64;100454.50;695866;28;1244;-84
2023/10/12 01:33:41;;;;;;;9.60;4.70;;;;;;;22.87;45.75;100470.38;698510;28;1332;-87
2023/10/12 01:34:03;;;;;;;12.43;5.28;;;;;;;22.84;45.70;100468.69;690720;28;1145;-87
2023/10/12 01:34:24;;;;;;;11.23;5.28;;;;;;;22.82;45.84;100464.31;695636;28;1305;-87
2023/10/12 01:34:57;;;;;;;11.52;5.53;;;;;;;22.81;45.74;100470.56;692806;28;1682;-89
2023/10/12 01:35:25;;;;;;;8.65;5.15;;;;;;;22.84;45.72;100463.38;693346;28;1177;-86
2023/10/12 01:35:49;;;;;;;16.17;5.10;;;;;;;22.80;45.80;100466.16;689940;28;1024;-87
2023/10/12 01:36:11;;;;;;;17.13;5.30;;;;;;;22.83;45.61;100468.72;693407;28;1056;-89
2023/10/12 01:36:32;;;;;;;10.63;5.43;;;;;;;22.79;45.63;100467.94;690335;28;1303;-87
2023/10/12 01:36:55;;;;;;;9.10;5.38;;;;;;;22.78;45.74;100473.28;693682;28;1281;-86
2023/10/12 01:37:23;;;;;;;9.98;5.13;;;;;;;22.80;45.60;100469.66;693172;28;1232;-84
2023/10/12 01:37:55;;;;;;;10.43;4.55;;;;;;;22.77;45.57;100469.78;685253;28;1144;-89
2023/10/12 01:38:16;;;;;;;9.25;4.93;;;;;;;22.78;45.53;100474.16;687642;28;1520;-88
2023/10/12 01:38:37;;;;;;;8.47;5.10;;;;;;;22.86;45.78;100471.28;687782;28;1006;-86
2023/10/12 01:39:14;;;;;;;8.90;4.80;;;;;;;22.82;45.62;100467.84;690684;28;1244;-85
2023/10/12 01:39:39;;;;;;;15.35;5.32;;;;;;;22.79;45.79;100461.75;692061;28;1141;-86
2023/10/12 01:40:24;;;;;;;11.05;5.07;;;;;;;22.70;45.99;100462.88;692391;28;1934;-85
2023/10/12 01:41:09;;;;;;;11.50;5.93;;;;;;;22.79;45.83;100461.75;693345;28;1027;-86
2023/10/12 01:41:32;;;;;;;10.55;5.70;;;;;;;22.77;45.84;100467.13;690359;28;1144;-86
2023/10/12 01:41:55;;;;;;;9.60;5.32;;;;;;;22.75;45.95;100463.63;685368;28;1453;-87
2023/10/12 01:42:20;;;;;;;9.30;5.53;;;;;;;22.70;46.09;100457.56;687720;28;1497;-86
2023/10/12 01:43:02;;;;;;;12.38;5.88;;;;;;;22.68;46.27;100460.25;687895;28;1148;-87
2023/10/12 01:43:27;;;;;;;12.68;5.32;;;;;;;22.70;46.15;100468.19;687209;28;1364;-85
2023/10/12 01:43:48;;;;;;;9.13;4.60;;;;;;;22.64;46.67;100474.56;688019;28;1982;-86
2023/10/12 01:44:11;;;;;;;7.97;4.60;;;;;;;22.59;46.69;100466.72;687824;28;1384;-87
2023/10/12 01:44:32;;;;;;;8.73;4.90;;;;;;;22.72;46.34;100477.88;686365;28;1133;-85
2023/10/12 01:44:54;;;;;;;11.90;5.53;;;;;;;22.65;46.69;100465.66;690395;28;1474;-85
2023/10/12 01:45:31;;;;;;;10.93;5.45;;;;;;;22.67;46.60;100474.47;687895;28;1207;-87
2023/10/12 01:45:59;;;;;;;10.32;5.43;;;;;;;22.59;46.80;100481.78;688086;28;848;-87
2023/10/12 01:46:22;;;;;;;12.18;5.65;;;;;;;22.57;46.95;100486.28;687896;28;1248;-86
2023/10/12 01:46:42;;;;;;;11.32;5.20;;;;;;;22.57;46.95;100488.94;690054;28;1375;-86
2023/10/12 01:47:04;;;;;;;9.10;5.20;;;;;;;22.48;46.94;100478.56;693296;28;1153;-86
2023/10/12 01:47:27;;;;;;;10.40;5.40;;;;;;;22.58;46.91;100480.03;690433;28;1242;-88
2023/10/12 01:47:54;;;;;;;12.35;5.88;;;;;;;22.49;47.12;100472.31;696108;28;1317;-87
2023/10/12 01:48:17;;;;;;;14.05;5.85;;;;;;;22.52;47.19;100482.84;690566;28;1395;-85
2023/10/12 01:48:37;;;;;;;15.80;5.88;;;;;;;22.56;47.09;100492.50;693253;28;1123;-86
2023/10/12 01:48:58;;;;;;;15.63;5.83;;;;;;;22.53;47.36;100485.47;690744;28;855;-87
2023/10/12 01:49:19;;;;;;;15.57;6.10;;;;;;;22.46;47.13;100479.44;687355;28;1089;-86
2023/10/12 01:49:41;;;;;;;14.23;5.80;;;;;;;22.52;47.30;100474.88;695736;28;1244;-85
2023/10/12 01:50:02;;;;;;;13.93;6.05;;;;;;;22.39;47.25;100469.03;693508;28;895;-86
2023/10/12 01:50:28;;;;;;;12.48;5.80;;;;;;;22.42;47.54;100485.75;687715;28;1054;-84
2023/10/12 01:50:49;;;;;;;10.13;5.50;;;;;;;22.27;47.75;100486.16;682688;28;1379;-89
2023/10/12 01:51:16;;;;;;;11.98;5.25;;;;;;;22.23;47.85;100489.75;688071;28;1139;-87
2023/10/12 01:51:42;;;;;;;12.82;5.65;;;;;;;22.18;48.07;100477.47;687662;28;1472;-88
2023/10/12 01:52:03;;;;;;;10.13;5.88;;;;;;;22.11;48.27;100489.16;690665;28;1052;-86
2023/10/12 01:52:24;;;;;;;8.10;5.68;;;;;;;21.97;48.49;100480.66;689396;28;1283;-86
2023/10/12 01:52:46;;;;;;;8.60;5.53;;;;;;;21.97;48.67;100478.91;687980;28;1312;-88
2023/10/12 01:53:41;;;;;;;13.88;5.78;;;;;;;22.02;48.88;100497.38;690317;28;1323;-87
2023/10/12 01:54:05;;;;;;;14.55;5.95;;;;;;;22.04;48.67;100490.22;690824;28;1336;-87
2023/10/12 01:54:28;;;;;;;10.73;6.05;;;;;;;21.98;48.72;100485.06;693150;28;1471;-86
2023/10/12 01:54:49;;;;;;;13.32;6.40;;;;;;;21.88;49.08;100477.31;687679;28;1345;-87
2023/10/12 01:55:17;;;;;;;18.38;6.82;;;;;;;21.95;49.08;100493.97;698655;28;1303;-84
2023/10/12 01:55:43;;;;;;;16.55;7.00;;;;;;;21.92;49.28;100491.41;693101;28;1128;-87
2023/10/12 01:56:09;;;;;;;13.43;6.05;;;;;;;21.93;49.41;100500.25;693368;28;991;-88
2023/10/12 01:56:31;;;;;;;13.32;5.70;;;;;;;21.85;49.60;100488.03;690824;28;1321;-86
2023/10/12 01:56:52;;;;;;;14.80;5.95;;;;;;;21.84;49.55;100491.59;687876;28;1404;-88
2023/10/12 01:57:13;;;;;;;12.40;6.20;;;;;;;21.85;49.65;100496.00;690298;28;1202;-88
2023/10/12 01:57:44;;;;;;;17.10;6.23;;;;;;;21.88;49.71;100501.22;693280;28;1100;-88
2023/10/12 01:58:05;;;;;;;15.25;6.32;;;;;;;21.86;49.83;100508.38;689888;28;1324;-86
2023/10/12 01:58:35;;;;;;;12.27;6.30;;;;;;;21.90;49.90;100510.03;693154;28;1175;-87
2023/10/12 01:58:56;;;;;;;16.02;6.30;;;;;;;21.86;49.72;100502.16;693529;28;779;-87
2023/10/12 01:59:19;;;;;;;16.97;6.40;;;;;;;21.84;49.68;100504.88;690642;28;1234;-87
2023/10/12 01:59:41;;;;;;;14.77;6.10;;;;;;;21.85;49.61;100496.00;690053;28;1241;-88
2023/10/12 02:00:07;;;;;;;13.02;6.10;;;;;;;21.87;49.67;100515.41;687894;28;1287;-88
2023/10/12 02:00:41;;;;;;;17.98;6.78;;;;;;;21.88;49.65;100538.41;689884;28;1344;-87
2023/10/12 02:01:05;;;;;;;17.40;6.90;;;;;;;21.87;49.34;100523.38;690568;28;1003;-86
2023/10/12 02:01:33;;;;;;;12.77;6.57;;;;;;;21.78;49.68;100526.25;690752;28;1341;-87
2023/10/12 02:02:06;;;;;;;13.38;6.80;;;;;;;21.76;49.98;100512.16;695509;28;1306;-88
2023/10/12 02:02:26;;;;;;;15.65;7.00;;;;;;;21.75;50.04;100531.63;690539;28;1598;-86
2023/10/12 02:02:50;;;;;;;16.02;7.60;;;;;;;21.74;50.08;100525.47;690750;28;901;-88
2023/10/12 02:03:20;;;;;;;14.82;7.50;;;;;;;21.76;49.87;100533.41;687687;28;1360;-86
2023/10/12 02:03:44;;;;;;;12.98;7.22;;;;;;;21.65;50.45;100523.00;690515;28;1318;-86
2023/10/12 02:04:05;;;;;;;12.30;7.20;;;;;;;21.60;50.64;100528.44;690506;28;1313;-87
2023/10/12 02:04:26;;;;;;;9.80;7.07;;;;;;;21.54;50.58;100523.25;685220;28;1289;-87
2023/10/12 02:04:47;;;;;;;12.02;7.70;;;;;;;21.58;50.88;100524.91;687395;28;1104;-87
2023/10/12 02:05:09;;;;;;;14.38;7.57;;;;;;;21.54;51.02;100528.56;690420;28;1295;-87
2023/10/12 02:05:34;;;;;;;16.23;7.72;;;;;;;21.47;51.37;100526.91;689557;28;1208;-88
2023/10/12 02:06:03;;;;;;;12.82;7.30;;;;;;;21.45;51.44;100529.59;690717;28;1386;-87
2023/10/12 02:06:28;;;;;;;13.25;7.20;;;;;;;21.32;52.01;100531.63;687706;28;1213;-86
2023/10/12 02:06:51;;;;;;;13.52;6.93;;;;;;;21.33;51.89;100530.72;692778;28;1388;-86
2023/10/12 02:07:12;;;;;;;14.80;7.40;;;;;;;21.33;52.13;100536.03;693241;28;1016;-87
2023/10/12 02:07:33;;;;;;;13.23;7.43;;;;;;;21.29;52.13;100529.06;690349;28;1180;-86
2023/10/12 02:07:53;;;;;;;11.75;7.10;;;;;;;21.35;52.23;100541.31;690660;28;1241;-86
2023/10/12 02:08:20;;;;;;;11.18;6.80;;;;;;;21.39;52.26;100544.78;687215;28;1154;-86
2023/10/12 02:08:46;;;;;;;12.40;7.40;;;;;;;21.41;52.24;100542.97;690232;28;1335;-87